Time;durP1;ratioP1;P1;durP2;ratioP2;P2;SDS_P1;SDS_P2;PMS_P1;PMS_P2;Temp;Humidity;BMP_temperature;BMP_pressure;BME280_temperature;BME280_humidity;BME280_pressure;Samples;Min_cycle;Max_cycle;Signal;HPM_P1;HPM_P2
2021/11/12 00:14:54;;;;;;;1.53;1.43;;;2.00;99.90;;;;;;5054135;28;20460;-71
2021/11/12 00:17:22;;;;;;;0.70;0.50;;;2.10;99.90;;;;;;5052912;28;20423;-71
2021/11/12 00:19:51;;;;;;;0.70;0.50;;;2.10;99.90;;;;;;5053340;28;20431;-71
2021/11/12 00:22:20;;;;;;;0.87;0.87;;;2.10;99.90;;;;;;5054160;28;20425;-70
2021/11/12 00:24:45;;;;;;;5.27;4.83;;;2.10;99.90;;;;;;5054349;28;20938;-70
2021/11/12 00:27:11;;;;;;;1.90;1.60;;;2.10;99.90;;;;;;5055248;28;20405;-71
2021/11/12 00:29:44;;;;;;;0.70;0.50;;;2.10;99.90;;;;;;5054366;28;20213;-70
2021/11/12 00:33:24;;;;;;;1.63;0.87;;;2.10;99.90;;;;;;5053092;28;20171;-71
2021/11/12 00:35:18;;;;;;;1.20;1.07;;;2.10;99.90;;;;;;5047698;28;20487;-70
2021/11/12 00:40:19;;;;;;;0.70;0.40;;;2.00;99.90;;;;;;5053150;28;20425;-70
2021/11/12 00:43:04;;;;;;;0.70;0.40;;;2.10;99.90;;;;;;5053417;28;20425;-70
2021/11/12 00:45:35;;;;;;;1.70;1.60;;;2.10;99.90;;;;;;5052658;28;20421;-70
2021/11/12 00:48:22;;;;;;;0.70;0.50;;;2.00;99.90;;;;;;5033247;28;20523;-70
2021/11/12 00:55:44;;;;;;;0.70;0.50;;;1.90;99.90;;;;;;5053900;28;20175;-71
2021/11/12 00:58:14;;;;;;;0.70;0.67;;;2.00;99.90;;;;;;5052893;28;20194;-71
2021/11/12 01:00:41;;;;;;;3.63;1.93;;;2.00;99.90;;;;;;5052989;28;20763;-71
2021/11/12 01:03:07;;;;;;;1.67;0.70;;;2.00;99.90;;;;;;5037486;28;20429;-70
2021/11/12 01:05:32;;;;;;;0.70;0.40;;;2.00;99.90;;;;;;5035826;28;20829;-70
2021/11/12 01:08:00;;;;;;;0.70;0.50;;;2.10;99.90;;;;;;5052899;28;20765;-71
2021/11/12 01:10:26;;;;;;;0.80;0.73;;;2.10;99.90;;;;;;5052861;28;20774;-71
2021/11/12 01:12:52;;;;;;;1.23;1.13;;;2.20;99.90;;;;;;5051066;28;20421;-70
2021/11/12 01:15:19;;;;;;;1.47;1.37;;;2.10;99.90;;;;;;5052374;28;20460;-70
2021/11/12 01:17:45;;;;;;;0.77;0.77;;;2.10;99.90;;;;;;5052185;28;20163;-70
2021/11/12 01:20:14;;;;;;;0.70;0.50;;;2.00;99.90;;;;;;5037897;28;20823;-70
2021/11/12 01:22:40;;;;;;;1.23;1.13;;;2.10;99.90;;;;;;5032720;28;20633;-70
2021/11/12 01:25:10;;;;;;;1.40;1.30;;;2.00;99.90;;;;;;5050067;28;20416;-70
2021/11/12 01:27:37;;;;;;;2.60;1.50;;;2.10;99.90;;;;;;5052239;28;20419;-70
2021/11/12 01:30:03;;;;;;;0.70;0.50;;;2.00;99.90;;;;;;5052519;28;20413;-71
2021/11/12 01:32:30;;;;;;;0.70;0.50;;;2.10;99.90;;;;;;5052153;28;20496;-71
2021/11/12 01:34:58;;;;;;;0.70;0.57;;;2.00;99.90;;;;;;5051492;28;20463;-71
2021/11/12 01:37:26;;;;;;;3.13;1.57;;;2.00;99.90;;;;;;5052448;28;20439;-71
2021/11/12 01:39:57;;;;;;;0.90;0.90;;;2.00;99.90;;;;;;5052294;28;20421;-71
2021/11/12 01:42:26;;;;;;;1.00;0.73;;;2.00;99.90;;;;;;5052230;28;20424;-70
2021/11/12 01:44:57;;;;;;;0.70;0.40;;;1.90;99.90;;;;;;5051702;28;20421;-70
2021/11/12 01:47:45;;;;;;;0.80;0.80;;;2.00;99.90;;;;;;5052112;28;20420;-70
2021/11/12 01:50:15;;;;;;;0.70;0.50;;;1.90;99.90;;;;;;5052115;28;20808;-70
2021/11/12 01:52:45;;;;;;;0.90;0.90;;;2.00;99.90;;;;;;5051715;28;20421;-70
2021/11/12 02:00:24;;;;;;;1.10;1.00;;;1.80;99.90;;;;;;5052841;28;20774;-71
2021/11/12 02:02:51;;;;;;;2.60;1.13;;;1.70;99.90;;;;;;5052269;28;20164;-73
2021/11/12 02:05:20;;;;;;;0.70;0.40;;;1.80;99.90;;;;;;5052317;28;20777;-70
2021/11/12 02:07:45;;;;;;;1.00;0.93;;;1.70;99.90;;;;;;5052675;28;20479;-71
2021/11/12 02:10:17;;;;;;;0.70;0.50;;;1.70;99.90;;;;;;5052556;28;20406;-71
2021/11/12 02:12:53;;;;;;;1.10;1.00;;;1.70;99.90;;;;;;5052873;28;20174;-71
2021/11/12 02:15:21;;;;;;;0.70;0.50;;;1.60;99.90;;;;;;5032639;28;20449;-71
2021/11/12 02:17:53;;;;;;;0.70;0.47;;;1.60;99.90;;;;;;5037575;28;20433;-71
2021/11/12 02:20:26;;;;;;;3.00;2.70;;;1.50;99.90;;;;;;5055742;28;20401;-71
2021/11/12 02:22:57;;;;;;;0.80;0.80;;;1.60;99.90;;;;;;5058245;28;20754;-70
2021/11/12 02:25:28;;;;;;;0.70;0.50;;;1.60;99.90;;;;;;5058074;28;20423;-70
2021/11/12 02:28:00;;;;;;;0.70;0.50;;;1.60;99.90;;;;;;5058336;28;20423;-70
2021/11/12 02:30:31;;;;;;;2.03;1.63;;;1.60;99.90;;;;;;5058358;28;20424;-71
2021/11/12 02:32:58;;;;;;;0.87;0.77;;;1.70;99.90;;;;;;5058656;28;20425;-71
2021/11/12 02:35:24;;;;;;;0.70;0.50;;;1.70;99.90;;;;;;5058567;28;20991;-71
2021/11/12 02:37:50;;;;;;;0.70;0.60;;;1.70;99.90;;;;;;5058546;28;20452;-71
2021/11/12 02:40:15;;;;;;;0.70;0.60;;;1.70;99.90;;;;;;5059198;28;20405;-71
2021/11/12 02:42:41;;;;;;;0.70;0.43;;;1.80;99.90;;;;;;5058164;28;20804;-71
2021/11/12 02:45:07;;;;;;;1.23;1.13;;;1.90;99.90;;;;;;5057979;28;20553;-71
2021/11/12 02:47:32;;;;;;;0.83;0.77;;;1.90;99.90;;;;;;5058576;28;20811;-71
2021/11/12 02:49:59;;;;;;;1.83;0.97;;;2.00;99.90;;;;;;5058952;28;20902;-71
2021/11/12 02:52:25;;;;;;;1.53;1.43;;;2.10;99.90;;;;;;5057761;28;20543;-71
2021/11/12 02:54:51;;;;;;;0.70;0.50;;;2.20;99.90;;;;;;5058100;28;20518;-71
2021/11/12 02:57:20;;;;;;;0.70;0.40;;;2.30;99.90;;;;;;5058243;28;20992;-70
2021/11/12 02:59:46;;;;;;;2.20;1.73;;;2.30;99.90;;;;;;5058006;28;20433;-70
2021/11/12 03:02:12;;;;;;;0.70;0.50;;;2.40;99.90;;;;;;5057971;28;20422;-70
2021/11/12 03:04:38;;;;;;;1.00;0.97;;;2.40;99.90;;;;;;5057933;28;20419;-70
2021/11/12 03:07:04;;;;;;;0.70;0.60;;;2.50;99.90;;;;;;5057609;28;20647;-70
2021/11/12 03:09:31;;;;;;;0.70;0.40;;;2.50;99.90;;;;;;5057972;28;20206;-70
2021/11/12 03:11:59;;;;;;;0.70;0.50;;;2.60;99.90;;;;;;5057962;28;20440;-70
2021/11/12 03:14:26;;;;;;;1.33;1.27;;;2.70;99.90;;;;;;5058121;28;20962;-71
2021/11/12 03:16:52;;;;;;;0.70;0.50;;;2.70;99.90;;;;;;5057773;28;20429;-70
2021/11/12 03:19:19;;;;;;;2.40;2.20;;;2.80;99.90;;;;;;5056963;28;21003;-70
2021/11/12 03:21:46;;;;;;;0.70;0.50;;;2.70;99.90;;;;;;5058054;28;20425;-71
2021/11/12 03:24:25;;;;;;;0.70;0.60;;;2.70;99.90;;;;;;5058294;28;20417;-71
2021/11/12 04:39:49;;;;;;;1.00;0.87;;;3.00;99.90;;;;;;5054228;28;20400;-72
2021/11/12 04:49:39;;;;;;;0.70;0.60;;;3.20;99.90;;;;;;5053103;28;20451;-70
2021/11/12 05:10:12;;;;;;;2.80;1.27;;;3.30;99.90;;;;;;5033663;28;20492;-71
2021/11/12 05:50:19;;;;;;;0.70;0.50;;;3.50;99.90;;;;;;5053044;28;20424;-72
2021/11/12 05:55:29;;;;;;;0.70;0.60;;;3.60;99.90;;;;;;5051911;28;20491;-72
2021/11/12 05:57:56;;;;;;;0.70;0.50;;;3.60;99.90;;;;;;5051419;28;20477;-72
2021/11/12 06:00:21;;;;;;;0.83;0.83;;;3.60;99.90;;;;;;5052786;28;20174;-72
2021/11/12 06:02:47;;;;;;;3.20;1.33;;;3.60;99.90;;;;;;5051816;28;21081;-71
2021/11/12 06:05:15;;;;;;;1.37;1.07;;;3.60;99.90;;;;;;5052370;28;20175;-71
2021/11/12 06:07:41;;;;;;;1.30;0.87;;;3.60;99.90;;;;;;5053699;28;20181;-71
2021/11/12 06:10:07;;;;;;;0.70;0.50;;;3.50;99.90;;;;;;5052964;28;20423;-71
2021/11/12 06:12:33;;;;;;;1.90;1.80;;;3.60;99.90;;;;;;5052659;28;20182;-71
2021/11/12 06:14:59;;;;;;;1.37;1.27;;;3.50;99.90;;;;;;5052605;28;20453;-71
2021/11/12 06:17:24;;;;;;;0.70;0.50;;;3.50;99.90;;;;;;5052702;28;20170;-71
2021/11/12 06:19:50;;;;;;;0.70;0.60;;;3.50;99.90;;;;;;5052522;28;20953;-72
2021/11/12 06:22:15;;;;;;;0.80;0.80;;;3.50;99.90;;;;;;5052515;28;20171;-72
2021/11/12 06:24:41;;;;;;;0.63;0.50;;;3.50;99.90;;;;;;5052396;28;20171;-72
2021/11/12 06:27:07;;;;;;;0.70;0.50;;;3.50;99.90;;;;;;5052559;28;20209;-71
2021/11/12 06:29:34;;;;;;;1.10;0.93;;;3.40;99.90;;;;;;5052995;28;20239;-71
2021/11/12 06:32:00;;;;;;;0.70;0.60;;;3.40;99.90;;;;;;5052831;28;20933;-72
2021/11/12 06:34:25;;;;;;;0.67;0.50;;;3.40;99.90;;;;;;5051443;28;20445;-72
2021/11/12 06:36:51;;;;;;;0.70;0.60;;;3.40;99.90;;;;;;5052064;28;20178;-72
2021/11/12 06:39:19;;;;;;;19.23;3.03;;;3.50;99.90;;;;;;5052071;28;20183;-72
2021/11/12 06:49:39;;;;;;;2.33;1.63;;;3.50;99.90;;;;;;5032646;28;20468;-72
2021/11/12 06:52:06;;;;;;;4.87;1.03;;;3.40;99.90;;;;;;5032430;28;20787;-73
2021/11/12 06:54:32;;;;;;;0.70;0.60;;;3.40;99.90;;;;;;5037110;28;20462;-72
2021/11/12 06:56:58;;;;;;;0.60;0.50;;;3.40;99.90;;;;;;5067150;28;20436;-72
2021/11/12 06:59:25;;;;;;;1.20;0.67;;;3.40;99.90;;;;;;5058099;28;20495;-72
2021/11/12 07:01:52;;;;;;;1.80;1.70;;;3.40;99.90;;;;;;5032324;28;20424;-72
2021/11/12 07:04:18;;;;;;;0.60;0.50;;;3.40;99.90;;;;;;5032590;28;20449;-72
2021/11/12 07:06:43;;;;;;;1.53;1.43;;;3.50;99.90;;;;;;5039522;28;20421;-70
2021/11/12 07:09:09;;;;;;;1.57;0.70;;;3.40;99.90;;;;;;5055887;28;20228;-71
2021/11/12 07:11:35;;;;;;;1.40;1.30;;;3.40;99.90;;;;;;5055955;28;20171;-71
2021/11/12 07:14:04;;;;;;;0.70;0.70;;;3.30;99.90;;;;;;5055876;28;20468;-71
2021/11/12 07:16:30;;;;;;;0.70;0.50;;;3.30;99.90;;;;;;5056121;28;20409;-72
2021/11/12 07:18:55;;;;;;;0.73;0.73;;;3.30;99.90;;;;;;5055535;28;20433;-71
2021/11/12 07:21:23;;;;;;;0.60;0.50;;;3.30;99.90;;;;;;5056079;28;21103;-71
2021/11/12 07:23:49;;;;;;;0.63;0.40;;;3.20;99.90;;;;;;5055947;28;20214;-71
2021/11/12 07:26:16;;;;;;;2.60;0.90;;;3.30;99.90;;;;;;5054507;28;20416;-71
2021/11/12 07:28:42;;;;;;;0.67;0.50;;;3.30;99.90;;;;;;5055342;28;20542;-72
2021/11/12 07:31:08;;;;;;;1.93;0.90;;;3.30;99.90;;;;;;5055605;28;20460;-71
2021/11/12 07:33:34;;;;;;;0.77;0.77;;;3.30;99.90;;;;;;5055798;28;20420;-72
2021/11/12 07:36:09;;;;;;;2.73;1.47;;;3.30;99.90;;;;;;5054863;28;20427;-72
2021/11/12 07:38:53;;;;;;;2.70;1.93;;;3.30;99.90;;;;;;5055339;28;20933;-72
2021/11/12 07:46:43;;;;;;;0.60;0.50;;;3.20;99.90;;;;;;5054902;28;20405;-72
2021/11/12 07:49:11;;;;;;;0.70;0.50;;;3.20;99.90;;;;;;5053463;28;20445;-72
2021/11/12 07:51:38;;;;;;;1.97;1.33;;;3.20;99.90;;;;;;5054375;28;20420;-72
2021/11/12 07:54:04;;;;;;;4.10;1.47;;;3.10;99.90;;;;;;5054657;28;20463;-71
2021/11/12 07:56:31;;;;;;;0.73;0.73;;;3.00;99.90;;;;;;5054610;28;20890;-72
2021/11/12 07:58:57;;;;;;;0.70;0.50;;;3.10;99.90;;;;;;5054761;28;20423;-72
2021/11/12 08:01:23;;;;;;;3.30;3.00;;;3.10;99.90;;;;;;5054889;28;20535;-72
2021/11/12 08:03:53;;;;;;;0.90;0.60;;;3.20;99.90;;;;;;5054388;28;20425;-72
2021/11/12 08:06:20;;;;;;;3.23;2.20;;;3.30;99.90;;;;;;5054600;28;20288;-72
2021/11/12 08:08:57;;;;;;;0.67;0.50;;;3.20;99.90;;;;;;5053264;28;20429;-72
2021/11/12 08:11:46;;;;;;;0.70;0.60;;;3.20;99.90;;;;;;5054904;28;20401;-72
2021/11/12 08:14:25;;;;;;;0.90;0.80;;;3.00;99.90;;;;;;5034322;28;20553;-71
2021/11/12 08:17:08;;;;;;;0.70;0.60;;;3.00;99.90;;;;;;5044683;28;20431;-72
2021/11/12 08:37:32;;;;;;;1.10;1.00;;;3.10;99.90;;;;;;5053665;28;20463;-71
2021/11/12 08:40:14;;;;;;;2.40;1.80;;;3.20;99.90;;;;;;5054839;28;20417;-72
2021/11/12 08:45:14;;;;;;;1.00;1.00;;;3.10;99.90;;;;;;5053523;28;21178;-71
2021/11/12 08:47:43;;;;;;;0.60;0.50;;;3.10;99.90;;;;;;5053577;28;20492;-72
2021/11/12 08:50:15;;;;;;;1.17;1.10;;;3.20;99.90;;;;;;5053596;28;20817;-72
2021/11/12 08:52:42;;;;;;;2.13;1.10;;;3.20;99.90;;;;;;5053040;28;20416;-73
2021/11/12 08:55:08;;;;;;;0.70;0.70;;;3.20;99.90;;;;;;5053258;28;20543;-72
2021/11/12 08:57:34;;;;;;;0.90;0.77;;;3.20;99.90;;;;;;5053408;28;20425;-72
2021/11/12 09:00:01;;;;;;;1.70;1.60;;;3.30;99.90;;;;;;5053473;28;21010;-72
2021/11/12 09:02:27;;;;;;;0.67;0.40;;;3.40;99.90;;;;;;5052154;28;20421;-72
2021/11/12 09:04:54;;;;;;;1.87;1.00;;;3.30;99.90;;;;;;5051502;28;20429;-72
2021/11/12 09:07:21;;;;;;;0.60;0.40;;;3.40;99.90;;;;;;5053528;28;20231;-72
2021/11/12 09:09:50;;;;;;;0.70;0.50;;;3.60;99.90;;;;;;5053351;28;20452;-71
2021/11/12 09:12:18;;;;;;;0.80;0.80;;;3.70;99.90;;;;;;5053530;28;20437;-71
2021/11/12 09:14:48;;;;;;;0.70;0.60;;;3.70;99.90;;;;;;5051777;28;20464;-72
2021/11/12 09:17:16;;;;;;;3.43;3.17;;;3.80;99.90;;;;;;5052856;28;20464;-72
2021/11/12 09:19:48;;;;;;;0.60;0.50;;;3.70;99.90;;;;;;5052120;28;20815;-72
2021/11/12 09:22:17;;;;;;;2.40;1.73;;;3.60;99.90;;;;;;5052848;28;20467;-71
2021/11/12 09:24:43;;;;;;;0.70;0.50;;;3.70;99.90;;;;;;5033136;28;20422;-72
2021/11/12 09:27:09;;;;;;;1.10;1.00;;;3.80;99.90;;;;;;5032828;28;20923;-72
2021/11/12 09:29:35;;;;;;;9.10;1.07;;;3.80;99.90;;;;;;5049177;28;20459;-71
2021/11/12 09:32:01;;;;;;;0.60;0.47;;;3.90;99.90;;;;;;5052843;28;20429;-71
2021/11/12 09:34:28;;;;;;;1.27;1.17;;;3.90;99.90;;;;;;5052442;28;20498;-71
2021/11/12 09:36:53;;;;;;;0.70;0.50;;;4.00;99.90;;;;;;5052441;28;20406;-71
2021/11/12 09:39:20;;;;;;;5.17;1.10;;;4.00;99.90;;;;;;5052342;28;20787;-71
2021/11/12 09:41:45;;;;;;;1.83;1.67;;;4.00;99.90;;;;;;5052577;28;20193;-72
2021/11/12 09:44:12;;;;;;;2.93;2.70;;;4.00;99.90;;;;;;5052492;28;20416;-71
2021/11/12 09:46:37;;;;;;;0.80;0.60;;;4.00;99.90;;;;;;5052120;28;20175;-71
2021/11/12 09:49:04;;;;;;;0.60;0.50;;;4.10;99.90;;;;;;5052156;28;20499;-71
2021/11/12 09:51:29;;;;;;;0.70;0.50;;;4.10;99.90;;;;;;5052801;28;20257;-71
2021/11/12 09:53:55;;;;;;;2.77;2.67;;;4.20;99.90;;;;;;5050909;28;20560;-71
2021/11/12 09:56:22;;;;;;;0.70;0.43;;;4.10;99.90;;;;;;5050776;28;20454;-71
2021/11/12 09:58:51;;;;;;;0.80;0.77;;;4.30;99.90;;;;;;5050816;28;20469;-72
2021/11/12 10:01:26;;;;;;;0.70;0.50;;;4.60;99.90;;;;;;5052470;28;20421;-71
2021/11/12 10:03:51;;;;;;;1.00;1.00;;;4.80;99.90;;;;;;5051286;28;20444;-72
2021/11/12 10:06:25;;;;;;;3.60;1.43;;;4.80;99.90;;;;;;5052731;28;20440;-71
2021/11/12 10:08:53;;;;;;;12.97;1.93;;;5.00;99.90;;;;;;5052286;28;20726;-71
2021/11/12 10:11:29;;;;;;;4.70;2.50;;;5.00;99.90;;;;;;5052227;28;20414;-71
2021/11/12 10:14:04;;;;;;;0.70;0.50;;;4.90;99.90;;;;;;5052178;28;20456;-70
2021/11/12 10:16:42;;;;;;;2.50;1.10;;;5.00;99.90;;;;;;5051395;28;20604;-70
2021/11/12 10:19:18;;;;;;;3.10;2.70;;;5.20;99.90;;;;;;5051769;28;20448;-70
2021/11/12 10:21:51;;;;;;;1.93;1.13;;;5.00;99.90;;;;;;5052203;28;20933;-70
2021/11/12 10:24:22;;;;;;;0.70;0.60;;;5.00;99.90;;;;;;5050694;28;20413;-70
2021/11/12 10:26:51;;;;;;;1.23;1.13;;;4.90;99.90;;;;;;5051212;28;20429;-70
2021/11/12 10:29:28;;;;;;;3.47;1.17;;;5.40;99.90;;;;;;5051940;28;20520;-71
2021/11/12 10:31:57;;;;;;;0.70;0.50;;;5.80;99.90;;;;;;5052034;28;20852;-71
2021/11/12 10:34:26;;;;;;;1.23;1.03;;;5.70;99.90;;;;;;5050356;28;20464;-71
2021/11/12 10:36:55;;;;;;;0.90;0.90;;;5.60;99.90;;;;;;5051088;28;20417;-70
2021/11/12 10:39:35;;;;;;;1.50;1.40;;;6.00;99.90;;;;;;5051813;28;20421;-70
2021/11/12 10:42:10;;;;;;;0.87;0.80;;;6.20;99.90;;;;;;5054307;28;20492;-70
2021/11/12 10:44:51;;;;;;;0.90;0.80;;;7.40;99.90;;;;;;5055727;28;20463;-71
2021/11/12 10:47:20;;;;;;;0.70;0.67;;;8.90;99.90;;;;;;5055586;28;20441;-71
2021/11/12 10:49:48;;;;;;;1.63;1.50;;;10.60;99.90;;;;;;5055031;28;20447;-71
2021/11/12 10:52:27;;;;;;;7.47;4.57;;;12.10;99.90;;;;;;5055575;28;20952;-71
2021/11/12 10:55:05;;;;;;;3.30;2.50;;;11.70;99.90;;;;;;5054966;28;20971;-71
2021/11/12 10:57:33;;;;;;;1.33;1.23;;;11.90;99.90;;;;;;5055781;28;20970;-71
2021/11/12 11:00:13;;;;;;;4.83;1.57;;;12.20;99.90;;;;;;5056131;28;20397;-71
2021/11/12 11:02:41;;;;;;;1.43;1.27;;;12.30;99.90;;;;;;5054830;28;20951;-70
2021/11/12 11:05:21;;;;;;;3.03;2.83;;;13.20;99.90;;;;;;5054949;28;20405;-71
2021/11/12 11:08:02;;;;;;;2.77;2.57;;;12.10;99.90;;;;;;5055325;28;20401;-71
2021/11/12 11:10:37;;;;;;;2.60;2.40;;;12.70;99.90;;;;;;5055189;28;20437;-70
2021/11/12 11:13:10;;;;;;;6.53;3.47;;;13.20;99.90;;;;;;5054636;28;20534;-71
2021/11/12 11:15:49;;;;;;;2.50;2.30;;;11.90;99.90;;;;;;5054691;28;20461;-71
2021/11/12 11:18:21;;;;;;;3.73;1.80;;;12.40;99.90;;;;;;5054707;28;20432;-71
2021/11/12 11:21:00;;;;;;;4.20;2.00;;;12.30;99.90;;;;;;5055287;28;20397;-71
2021/11/12 11:23:29;;;;;;;2.87;2.43;;;13.30;99.90;;;;;;5054236;28;20440;-70
2021/11/12 11:26:03;;;;;;;2.70;2.50;;;14.10;99.90;;;;;;5052206;28;20413;-70
2021/11/12 11:28:31;;;;;;;1.83;1.73;;;13.70;99.90;;;;;;5053871;28;20441;-71
2021/11/12 11:30:57;;;;;;;2.60;1.50;;;14.70;99.90;;;;;;5055282;28;20413;-72
2021/11/12 11:33:23;;;;;;;3.33;2.80;;;14.40;99.90;;;;;;5054976;28;20413;-72
2021/11/12 11:35:54;;;;;;;1.53;1.30;;;14.90;99.90;;;;;;5054546;28;20459;-72
2021/11/12 11:38:20;;;;;;;1.73;1.63;;;15.40;99.90;;;;;;5054458;28;20187;-71
2021/11/12 11:40:49;;;;;;;5.07;2.50;;;16.20;99.90;;;;;;5053448;28;20421;-71
2021/11/12 11:43:16;;;;;;;3.67;2.33;;;15.30;99.90;;;;;;5052857;28;20417;-71
2021/11/12 11:45:47;;;;;;;1.37;1.27;;;15.40;99.90;;;;;;5054056;28;20401;-72
2021/11/12 11:48:13;;;;;;;1.37;1.27;;;14.80;99.90;;;;;;5054374;28;20445;-72
2021/11/12 11:50:53;;;;;;;4.20;3.90;;;14.70;99.90;;;;;;5055771;28;20408;-71
2021/11/12 11:53:43;;;;;;;3.40;2.23;;;14.20;99.90;;;;;;5053500;28;20405;-72
2021/11/12 11:56:19;;;;;;;2.90;1.23;;;14.20;99.90;;;;;;5034372;28;20426;-71
2021/11/12 11:58:45;;;;;;;4.57;2.97;;;15.30;99.90;;;;;;5068489;28;20985;-72
2021/11/12 12:01:20;;;;;;;3.50;3.27;;;15.40;99.90;;;;;;5054033;28;20496;-72
2021/11/12 12:03:51;;;;;;;1.63;1.13;;;14.50;99.90;;;;;;5054132;28;20941;-71
2021/11/12 12:06:18;;;;;;;2.53;1.77;;;15.40;99.90;;;;;;5053772;28;20487;-72
2021/11/12 12:09:05;;;;;;;3.13;1.93;;;16.30;99.90;;;;;;5053639;28;20486;-72
2021/11/12 12:11:35;;;;;;;1.73;1.37;;;15.10;99.90;;;;;;5054716;28;20515;-72
2021/11/12 12:14:32;;;;;;;2.07;1.30;;;15.00;99.90;;;;;;5053187;28;20480;-72
2021/11/12 12:17:02;;;;;;;3.03;2.10;;;15.40;99.90;;;;;;5053341;28;20467;-72
2021/11/12 13:20:42;;;;;;;3.40;3.10;;;12.70;99.90;;;;;;5052828;28;20475;-72
2021/11/12 13:25:58;;;;;;;6.03;3.37;;;13.40;99.90;;;;;;5052633;28;20998;-72
2021/11/12 13:28:32;;;;;;;2.00;1.90;;;13.10;99.90;;;;;;5052327;28;20452;-71
2021/11/12 13:31:03;;;;;;;1.43;1.10;;;13.40;99.90;;;;;;5052519;28;20420;-71
2021/11/12 13:33:43;;;;;;;2.43;2.23;;;13.60;99.90;;;;;;5052078;28;20424;-72
2021/11/12 13:36:12;;;;;;;1.77;1.53;;;13.70;99.90;;;;;;5052142;28;20507;-72
2021/11/12 13:38:41;;;;;;;5.03;4.40;;;12.80;99.90;;;;;;5052406;28;20460;-72
2021/11/12 13:41:09;;;;;;;3.40;1.53;;;11.80;99.90;;;;;;5052164;28;20898;-72
2021/11/12 13:43:41;;;;;;;1.40;1.30;;;12.20;99.90;;;;;;5052059;28;20437;-72
2021/11/12 13:46:07;;;;;;;4.10;1.83;;;12.60;99.90;;;;;;5051540;28;20421;-72
2021/11/12 13:48:50;;;;;;;1.47;1.37;;;11.40;99.90;;;;;;5050352;28;20543;-70
2021/11/12 13:51:23;;;;;;;1.23;1.13;;;12.10;99.90;;;;;;5051553;28;20417;-72
2021/11/12 13:53:49;;;;;;;1.23;1.13;;;12.10;99.90;;;;;;5052277;28;20409;-72
2021/11/12 13:56:16;;;;;;;0.93;0.93;;;11.60;99.90;;;;;;5051548;28;20448;-72
2021/11/12 13:58:42;;;;;;;1.50;1.40;;;11.20;99.90;;;;;;5051938;28;20433;-72
2021/11/12 14:01:20;;;;;;;1.67;1.30;;;10.90;99.90;;;;;;5052299;28;20488;-72
2021/11/12 14:03:47;;;;;;;1.10;1.00;;;10.70;99.90;;;;;;5052488;28;20409;-72
2021/11/12 14:06:13;;;;;;;2.80;2.10;;;10.90;99.90;;;;;;5050331;28;20425;-72
2021/11/12 14:08:50;;;;;;;0.90;0.90;;;10.40;99.90;;;;;;5051684;28;20833;-69
2021/11/12 14:11:30;;;;;;;1.40;1.00;;;10.50;99.90;;;;;;5041540;28;20825;-69
2021/11/12 14:14:02;;;;;;;2.30;1.17;;;10.40;99.90;;;;;;5051935;28;20448;-70
2021/11/12 14:16:35;;;;;;;1.43;1.30;;;10.30;99.90;;;;;;5050596;28;20406;-72
2021/11/12 14:22:02;;;;;;;2.10;1.77;;;9.70;99.90;;;;;;5050456;28;20942;-69
2021/11/12 14:24:46;;;;;;;1.53;1.00;;;9.80;99.90;;;;;;5051782;28;20953;-69
2021/11/12 14:43:39;;;;;;;3.17;1.37;;;8.40;99.90;;;;;;5051648;28;20500;-71
2021/11/12 14:46:25;;;;;;;1.50;1.30;;;8.30;99.90;;;;;;5051418;28;20762;-71
2021/11/12 14:51:20;;;;;;;1.10;1.00;;;8.20;99.90;;;;;;5051890;28;20417;-72
2021/11/12 14:56:20;;;;;;;1.13;0.63;;;8.20;99.90;;;;;;5040494;28;20436;-72
2021/11/12 14:59:04;;;;;;;1.60;0.70;;;8.00;99.90;;;;;;5051424;28;20440;-71
2021/11/12 15:01:31;;;;;;;0.70;0.60;;;8.00;99.90;;;;;;5051397;28;20409;-71
2021/11/12 15:03:57;;;;;;;3.63;1.80;;;7.90;99.90;;;;;;5050961;28;20417;-71
2021/11/12 15:06:25;;;;;;;5.60;2.37;;;7.90;99.90;;;;;;5051103;28;20447;-72
2021/11/12 15:08:54;;;;;;;1.17;0.87;;;7.90;99.90;;;;;;5051352;28;20594;-72
2021/11/12 15:11:23;;;;;;;1.33;1.23;;;7.70;99.90;;;;;;5053539;28;20441;-72
2021/11/12 15:13:51;;;;;;;1.13;0.90;;;7.60;99.90;;;;;;5050972;28;20453;-71
2021/11/12 15:16:22;;;;;;;1.30;1.20;;;7.60;99.90;;;;;;5051158;28;20409;-71
2021/11/12 15:18:50;;;;;;;0.83;0.83;;;7.60;99.90;;;;;;5051352;28;20850;-71
2021/11/12 15:21:20;;;;;;;0.70;0.60;;;7.40;99.90;;;;;;5051366;28;20417;-71
2021/11/12 15:34:38;;;;;;;0.90;0.70;;;7.10;99.90;;;;;;5053944;28;20514;-72
2021/11/12 15:37:22;;;;;;;1.23;1.13;;;7.00;99.90;;;;;;5054816;28;20839;-70
2021/11/12 15:44:46;;;;;;;1.27;1.17;;;7.00;99.90;;;;;;5053938;28;20417;-71
2021/11/12 15:49:41;;;;;;;0.70;0.50;;;6.90;99.90;;;;;;5054627;28;20437;-71
2021/11/12 15:52:24;;;;;;;0.70;0.50;;;6.80;99.90;;;;;;5054309;28;20424;-71
2021/11/12 16:00:14;;;;;;;2.80;1.07;;;6.50;99.90;;;;;;5054460;28;20413;-72
2021/11/12 16:05:45;;;;;;;4.50;3.23;;;6.40;99.90;;;;;;5053884;28;20814;-71
2021/11/12 16:18:36;;;;;;;1.47;1.40;;;6.20;99.90;;;;;;5053737;28;20930;-71
2021/11/12 16:26:32;;;;;;;0.90;0.90;;;5.90;99.90;;;;;;5053553;28;20421;-71
2021/11/12 16:31:36;;;;;;;0.80;0.80;;;5.90;99.90;;;;;;5053672;28;20421;-71
2021/11/12 16:34:11;;;;;;;0.70;0.50;;;5.90;99.90;;;;;;5053419;28;21009;-71
2021/11/12 16:36:42;;;;;;;0.70;0.50;;;5.80;99.90;;;;;;5053316;28;20442;-71
2021/11/12 16:39:09;;;;;;;1.17;1.07;;;5.70;99.90;;;;;;5052887;28;20437;-71
2021/11/12 16:41:38;;;;;;;1.80;1.70;;;5.60;99.90;;;;;;5053637;28;20478;-70
2021/11/12 16:44:33;;;;;;;4.00;1.70;;;5.60;99.90;;;;;;5052022;28;20453;-71
2021/11/12 17:04:48;;;;;;;0.83;0.83;;;5.30;99.90;;;;;;5053380;28;20170;-72
2021/11/12 17:07:37;;;;;;;5.33;1.37;;;5.30;99.90;;;;;;5053017;28;20182;-71
2021/11/12 17:18:44;;;;;;;1.90;1.80;;;5.10;99.90;;;;;;5041359;28;20429;-71
2021/11/12 17:47:59;;;;;;;1.10;0.60;;;4.70;99.90;;;;;;5052010;28;20440;-71
2021/11/12 18:03:52;;;;;;;1.27;1.17;;;4.60;99.90;;;;;;5052120;28;20481;-71
2021/11/12 18:06:27;;;;;;;1.43;1.33;;;4.60;99.90;;;;;;5051753;28;20917;-71
2021/11/12 18:17:18;;;;;;;2.47;2.37;;;4.50;99.90;;;;;;5051893;28;20412;-71
2021/11/12 21:46:03;;;;;;;1.00;0.90;;;4.10;99.90;;;;;;5050803;28;20429;-71
2021/11/12 21:48:32;;;;;;;0.90;0.80;;;4.00;99.90;;;;;;5046136;28;20582;-71
2021/11/12 21:50:59;;;;;;;1.57;1.03;;;4.00;99.90;;;;;;5051309;28;20810;-71
2021/11/12 21:53:26;;;;;;;0.87;0.80;;;4.10;99.90;;;;;;5048608;28;20475;-71
2021/11/12 21:55:54;;;;;;;0.93;0.83;;;4.20;99.90;;;;;;5051257;28;20472;-71
2021/11/12 21:58:20;;;;;;;1.13;1.07;;;4.30;99.90;;;;;;5050523;28;20441;-72
2021/11/12 22:00:47;;;;;;;0.70;0.43;;;4.30;99.90;;;;;;5050057;28;20467;-71
2021/11/12 22:03:14;;;;;;;6.00;2.10;;;4.30;99.90;;;;;;5050601;28;20433;-71
2021/11/12 22:05:40;;;;;;;0.70;0.70;;;4.30;99.90;;;;;;5051901;28;20405;-71
2021/11/12 22:08:05;;;;;;;1.23;1.13;;;4.30;99.90;;;;;;5054403;28;20845;-71
2021/11/12 22:10:31;;;;;;;1.00;0.87;;;4.30;99.90;;;;;;5046730;28;20555;-71
2021/11/12 22:12:57;;;;;;;1.10;1.00;;;4.40;99.90;;;;;;5046261;28;20179;-71
2021/11/12 22:15:23;;;;;;;0.70;0.60;;;4.40;99.90;;;;;;5048012;28;20468;-71
2021/11/12 22:17:48;;;;;;;0.70;0.60;;;4.40;99.90;;;;;;5047179;28;20205;-71
2021/11/12 22:20:16;;;;;;;0.70;0.50;;;4.40;99.90;;;;;;5050549;28;20178;-71
2021/11/12 22:22:43;;;;;;;0.70;0.50;;;4.40;99.90;;;;;;5049105;28;20639;-71
2021/11/12 22:25:09;;;;;;;0.80;0.80;;;4.50;99.90;;;;;;5046185;28;20440;-70
2021/11/12 22:27:35;;;;;;;1.80;1.70;;;4.40;99.90;;;;;;5051606;28;20413;-70
2021/11/12 22:30:01;;;;;;;3.23;2.10;;;4.50;99.90;;;;;;5049222;28;20478;-70
2021/11/12 22:32:26;;;;;;;1.97;1.50;;;4.50;99.90;;;;;;5045376;28;20187;-70
2021/11/12 22:34:53;;;;;;;2.80;2.60;;;4.50;99.90;;;;;;5045890;28;20456;-71
2021/11/12 22:37:19;;;;;;;1.00;0.73;;;4.50;99.90;;;;;;5050473;28;20174;-70
2021/11/12 22:39:44;;;;;;;1.20;1.00;;;4.50;99.90;;;;;;5046116;28;20455;-71
2021/11/12 22:42:11;;;;;;;1.17;1.07;;;4.50;99.90;;;;;;5047802;28;20786;-71
2021/11/12 22:44:36;;;;;;;1.20;1.10;;;4.50;99.90;;;;;;5048507;28;20170;-71
2021/11/12 22:47:03;;;;;;;2.50;2.30;;;4.60;99.90;;;;;;5046905;28;20464;-71
2021/11/12 22:49:29;;;;;;;0.70;0.53;;;4.40;99.90;;;;;;5046098;28;20444;-71
2021/11/12 22:51:54;;;;;;;2.70;1.77;;;4.40;99.90;;;;;;5049200;28;20429;-71
2021/11/12 22:54:20;;;;;;;2.73;2.50;;;4.30;99.90;;;;;;5048212;28;20234;-71
2021/11/12 22:56:46;;;;;;;1.20;1.10;;;4.30;99.90;;;;;;5046863;28;20233;-71
2021/11/12 22:59:11;;;;;;;0.70;0.70;;;4.30;99.90;;;;;;5050226;28;20510;-71
2021/11/12 23:01:37;;;;;;;1.40;1.30;;;4.40;99.90;;;;;;5047260;28;20171;-72
2021/11/12 23:04:02;;;;;;;3.60;1.67;;;4.30;99.90;;;;;;5047022;28;20177;-70
2021/11/12 23:06:28;;;;;;;0.73;0.60;;;4.30;99.90;;;;;;5046228;28;21771;-71
2021/11/12 23:08:54;;;;;;;1.20;1.10;;;4.30;99.90;;;;;;5046283;28;20733;-71
2021/11/12 23:11:20;;;;;;;0.80;0.70;;;4.30;99.90;;;;;;5047326;28;20656;-70
2021/11/12 23:13:47;;;;;;;0.83;0.73;;;4.40;99.90;;;;;;5046313;28;20432;-71
2021/11/12 23:16:15;;;;;;;0.70;0.50;;;4.40;99.90;;;;;;5049296;28;20479;-70
2021/11/12 23:18:42;;;;;;;3.17;2.87;;;4.40;99.90;;;;;;5047288;28;20463;-71
2021/11/12 23:21:08;;;;;;;2.87;0.87;;;4.50;99.90;;;;;;5048233;28;20432;-71